Time;durP1;ratioP1;P1;durP2;ratioP2;P2;SDS_P1;SDS_P2;PMS_P1;PMS_P2;Temp;Humidity;BMP_temperature;BMP_pressure;BME280_temperature;BME280_humidity;BME280_pressure;Samples;Min_cycle;Max_cycle;Signal;HPM_P1;HPM_P2
2022/09/26 00:03:10;;;;;;;1.10;0.30;;;12.20;99.90;;;;;;20971760;28;20108;-39
2022/09/26 00:13:11;;;;;;;1.02;0.38;;;12.40;99.90;;;;;;20960652;28;20110;-38
2022/09/26 00:23:13;;;;;;;2.05;0.55;;;12.50;99.90;;;;;;20965314;28;20051;-40
2022/09/26 00:33:14;;;;;;;1.00;0.30;;;12.40;99.90;;;;;;20959834;28;20542;-39
2022/09/26 00:43:42;;;;;;;1.10;0.30;;;12.40;99.90;;;;;;20946633;28;20511;-39
2022/09/26 00:53:46;;;;;;;;;;;12.30;99.90;;;;;;20956464;28;20302;-39
2022/09/26 01:03:49;;;;;;;0.77;0.30;;;12.30;99.90;;;;;;20962875;28;19912;-39
2022/09/26 01:13:53;;;;;;;0.95;0.32;;;12.30;99.90;;;;;;20961102;28;20094;-39
2022/09/26 01:24:16;;;;;;;1.35;0.40;;;12.30;99.90;;;;;;20966303;28;20032;-39
2022/09/26 01:34:39;;;;;;;0.77;0.40;;;12.40;99.90;;;;;;20963156;28;20120;-39
2022/09/26 01:44:47;;;;;;;0.52;0.22;;;12.30;99.90;;;;;;20954290;28;20285;-40
2022/09/26 01:55:04;;;;;;;1.38;0.60;;;12.30;99.90;;;;;;20957248;28;21397;-39
2022/09/26 02:05:24;;;;;;;2.33;0.90;;;12.30;99.90;;;;;;20957100;28;20037;-39
2022/09/26 02:15:29;;;;;;;3.50;1.00;;;12.10;99.90;;;;;;20952446;28;20068;-39
2022/09/26 02:25:31;;;;;;;2.05;0.73;;;12.10;99.90;;;;;;20956005;28;20116;-39
2022/09/26 02:46:13;;;;;;;3.03;0.98;;;11.80;99.90;;;;;;20950949;28;20651;-39
2022/09/26 02:56:40;;;;;;;1.80;0.88;;;11.70;99.90;;;;;;20956227;28;20044;-40
2022/09/26 03:06:45;;;;;;;1.60;0.47;;;11.80;99.90;;;;;;20953380;28;20853;-39
2022/09/26 03:16:49;;;;;;;3.25;1.38;;;11.80;99.90;;;;;;20951188;28;20130;-39
2022/09/26 03:26:50;;;;;;;2.20;1.00;;;11.80;99.90;;;;;;20964591;28;20036;-39
2022/09/26 03:36:51;;;;;;;2.58;0.90;;;11.90;99.90;;;;;;20969061;28;20097;-39
2022/09/26 03:46:52;;;;;;;1.80;0.65;;;11.80;99.90;;;;;;20967770;28;20125;-39
2022/09/26 03:56:54;;;;;;;2.38;0.90;;;11.80;99.90;;;;;;20960976;28;20099;-39
2022/09/26 04:06:55;;;;;;;2.58;1.25;;;11.80;99.90;;;;;;20966200;28;20052;-40
2022/09/26 04:16:57;;;;;;;1.45;0.70;;;11.70;99.90;;;;;;20964917;28;20040;-39
2022/09/26 04:26:58;;;;;;;3.47;1.27;;;11.80;99.90;;;;;;20971793;28;20032;-39
2022/09/26 04:36:59;;;;;;;3.47;0.65;;;11.70;99.90;;;;;;20968487;28;20037;-40
2022/09/26 04:47:00;;;;;;;2.67;1.70;;;11.80;99.90;;;;;;20961111;28;20032;-40
2022/09/26 04:57:03;;;;;;;1.30;0.70;;;11.70;99.90;;;;;;20942443;28;20113;-40
2022/09/26 05:07:04;;;;;;;8.00;1.95;;;11.50;99.90;;;;;;20954247;28;20079;-39
2022/09/26 05:17:05;;;;;;;3.38;0.88;;;11.10;99.90;;;;;;20951443;28;20048;-39
2022/09/26 05:27:06;;;;;;;1.65;0.77;;;11.20;99.90;;;;;;20963770;28;24214;-40
2022/09/26 05:37:09;;;;;;;1.75;0.82;;;11.20;99.90;;;;;;20955356;28;20442;-40
2022/09/26 05:47:11;;;;;;;1.55;0.73;;;11.20;99.90;;;;;;20955430;28;20493;-40
2022/09/26 05:57:12;;;;;;;2.95;1.00;;;11.30;99.90;;;;;;20961032;28;20070;-40
2022/09/26 06:07:14;;;;;;;1.42;0.57;;;11.30;99.90;;;;;;20953453;28;22632;-40
2022/09/26 06:17:15;;;;;;;1.13;0.70;;;11.40;99.90;;;;;;20949446;28;20161;-40
2022/09/26 06:27:16;;;;;;;2.08;0.68;;;11.40;99.90;;;;;;20966847;28;20287;-40
2022/09/26 06:37:17;;;;;;;1.88;0.60;;;11.40;99.90;;;;;;20969047;28;20075;-40
2022/09/26 06:47:18;;;;;;;1.42;0.60;;;11.40;99.90;;;;;;20967122;28;20620;-40
2022/09/26 06:57:19;;;;;;;1.45;0.73;;;11.50;99.90;;;;;;20969278;28;20475;-40
2022/09/26 07:07:20;;;;;;;2.15;0.90;;;11.50;99.90;;;;;;20997107;28;20056;-40
2022/09/26 07:17:21;;;;;;;2.65;1.13;;;11.60;99.90;;;;;;20999387;28;20040;-40
2022/09/26 07:27:22;;;;;;;1.55;0.60;;;11.60;99.90;;;;;;20995302;28;20036;-40
2022/09/26 07:37:24;;;;;;;4.10;1.42;;;11.70;99.90;;;;;;20990632;28;20090;-40
2022/09/26 07:57:47;;;;;;;2.33;1.27;;;12.00;99.90;;;;;;20997331;28;21945;-40
2022/09/26 08:07:48;;;;;;;1.88;0.93;;;12.00;99.90;;;;;;20986774;28;20036;-39
2022/09/26 08:17:49;;;;;;;2.30;0.77;;;12.20;99.90;;;;;;20982767;28;20052;-39
2022/09/26 08:27:51;;;;;;;4.00;0.70;;;12.00;99.90;;;;;;20986046;28;20032;-39
2022/09/26 08:37:53;;;;;;;2.60;1.30;;;11.80;99.90;;;;;;20982782;28;20459;-39
2022/09/26 08:48:13;;;;;;;1.92;1.05;;;11.90;99.90;;;;;;20984690;28;20036;-39
2022/09/26 08:58:26;;;;;;;5.15;1.30;;;11.90;99.90;;;;;;20983636;28;20141;-40
2022/09/26 09:08:37;;;;;;;1.83;0.88;;;11.80;99.90;;;;;;20974329;28;20879;-40
2022/09/26 09:18:44;;;;;;;2.40;1.33;;;11.70;99.90;;;;;;20973511;28;20101;-40
2022/09/26 09:29:10;;;;;;;10.43;2.30;;;11.80;99.90;;;;;;20983391;28;20048;-40
2022/09/26 09:39:20;;;;;;;3.97;1.02;;;11.90;99.90;;;;;;20976009;28;20040;-40
2022/09/26 09:49:23;;;;;;;4.32;1.30;;;11.90;99.90;;;;;;20974263;28;20043;-39
2022/09/26 09:59:57;;;;;;;15.05;3.17;;;12.10;99.90;;;;;;20975147;28;20149;-38
2022/09/26 10:09:58;;;;;;;3.25;1.60;;;12.30;99.90;;;;;;20970069;28;20895;-39
2022/09/26 10:19:59;;;;;;;4.40;1.67;;;12.30;99.90;;;;;;20972998;28;20047;-39
2022/09/26 10:30:17;;;;;;;2.53;1.38;;;12.30;99.90;;;;;;20972353;28;20029;-39
2022/09/26 10:40:44;;;;;;;2.10;0.98;;;12.20;99.90;;;;;;20979086;28;20119;-38
2022/09/26 10:50:50;;;;;;;3.67;1.45;;;12.20;99.90;;;;;;20982310;28;21241;-39
2022/09/26 11:00:53;;;;;;;4.85;1.80;;;12.10;99.90;;;;;;20983993;28;20048;-40
2022/09/26 11:10:57;;;;;;;2.83;1.63;;;12.10;99.90;;;;;;20980831;28;20036;-39
2022/09/26 11:21:27;;;;;;;2.15;1.40;;;12.10;99.90;;;;;;20978689;28;20037;-41
2022/09/26 11:31:42;;;;;;;2.53;1.48;;;12.10;99.90;;;;;;20981097;28;20883;-39
2022/09/26 11:42:03;;;;;;;2.60;1.10;;;12.30;99.90;;;;;;20982666;28;20098;-39
2022/09/26 11:52:32;;;;;;;4.05;1.77;;;12.30;99.90;;;;;;20977896;28;20062;-39
2022/09/26 12:02:56;;;;;;;2.70;1.33;;;12.30;99.90;;;;;;20976636;28;21849;-39
2022/09/26 12:13:18;;;;;;;2.65;1.58;;;12.40;99.90;;;;;;20977465;28;20048;-39
2022/09/26 12:23:56;;;;;;;1.73;0.88;;;12.40;99.90;;;;;;20973096;28;20082;-40
2022/09/26 12:34:03;;;;;;;2.17;0.97;;;12.40;99.90;;;;;;20977369;28;20588;-40
2022/09/26 12:44:19;;;;;;;2.30;1.08;;;12.60;99.90;;;;;;20971563;28;20052;-40
2022/09/26 12:54:39;;;;;;;2.00;0.77;;;12.70;99.90;;;;;;20974094;28;20048;-40
2022/09/26 13:05:02;;;;;;;1.30;0.57;;;12.70;99.90;;;;;;20971298;28;20193;-39
2022/09/26 13:15:09;;;;;;;0.80;0.30;;;12.80;99.90;;;;;;20961909;28;20076;-39
2022/09/26 13:25:09;;;;;;;1.27;0.63;;;12.90;99.90;;;;;;20969528;28;20048;-40
2022/09/26 13:35:34;;;;;;;1.05;0.20;;;12.90;99.90;;;;;;20971562;28;20125;-39
2022/09/26 13:45:54;;;;;;;1.40;0.52;;;13.00;99.90;;;;;;20966589;28;21825;-39
2022/09/26 13:56:29;;;;;;;2.10;0.80;;;13.10;99.90;;;;;;20968463;28;20044;-39
2022/09/26 14:06:30;;;;;;;1.38;0.88;;;13.40;99.90;;;;;;20966127;28;20906;-39
2022/09/26 14:16:33;;;;;;;2.33;1.05;;;13.30;99.90;;;;;;20963300;28;20503;-39
2022/09/26 14:26:42;;;;;;;1.98;1.10;;;13.20;99.90;;;;;;20964587;28;20039;-39
2022/09/26 14:36:45;;;;;;;2.03;0.85;;;13.20;99.90;;;;;;20965484;28;20048;-39
2022/09/26 14:46:52;;;;;;;4.68;1.17;;;13.20;99.90;;;;;;20968175;28;20040;-40
2022/09/26 14:57:02;;;;;;;3.03;1.07;;;13.10;99.90;;;;;;20961289;28;20067;-40
2022/09/26 15:07:15;;;;;;;6.28;2.05;;;13.00;99.90;;;;;;20941211;28;20158;-40
2022/09/26 15:17:22;;;;;;;2.97;1.35;;;12.90;99.90;;;;;;20952553;28;20155;-40
2022/09/26 15:27:28;;;;;;;3.77;0.97;;;12.80;99.90;;;;;;20952112;28;20510;-39
2022/09/26 15:37:33;;;;;;;4.65;1.50;;;12.90;99.90;;;;;;20951154;28;20881;-39
2022/09/26 15:47:37;;;;;;;4.97;1.33;;;12.90;99.90;;;;;;20953707;28;20070;-39
2022/09/26 15:57:39;;;;;;;3.60;1.20;;;13.00;99.90;;;;;;20954365;28;20093;-38
2022/09/26 16:07:47;;;;;;;5.07;1.77;;;13.20;99.90;;;;;;20942234;28;20755;-39
2022/09/26 16:17:53;;;;;;;6.43;1.85;;;13.20;99.90;;;;;;20971488;28;20101;-39
2022/09/26 16:28:09;;;;;;;4.97;1.50;;;12.90;99.90;;;;;;20975897;28;20664;-39
2022/09/26 16:38:25;;;;;;;8.13;2.33;;;12.80;99.90;;;;;;20971337;28;20457;-39
2022/09/26 16:48:48;;;;;;;6.13;1.70;;;12.60;99.90;;;;;;20953253;28;20120;-39
2022/09/26 16:59:15;;;;;;;3.28;1.27;;;12.30;99.90;;;;;;20961408;28;20876;-39
2022/09/26 17:09:27;;;;;;;3.08;1.05;;;12.20;99.90;;;;;;20943955;28;20094;-39
2022/09/26 17:19:34;;;;;;;1.52;0.30;;;12.20;99.90;;;;;;20948066;28;21830;-39
2022/09/26 17:29:39;;;;;;;0.80;0.32;;;12.20;99.90;;;;;;20943899;28;20040;-39
2022/09/26 17:39:40;;;;;;;9.10;1.67;;;12.00;99.90;;;;;;20932377;28;20043;-39
2022/09/26 17:49:46;;;;;;;1.85;0.85;;;11.90;99.90;;;;;;20891136;28;20075;-39
2022/09/26 17:59:48;;;;;;;2.53;1.10;;;11.90;99.90;;;;;;20932846;28;20509;-39
2022/09/26 18:09:50;;;;;;;1.83;0.45;;;11.80;99.90;;;;;;20924515;28;20077;-39
2022/09/26 18:19:51;;;;;;;2.65;1.25;;;11.70;99.90;;;;;;20931915;28;20498;-39
2022/09/26 18:29:54;;;;;;;3.10;1.52;;;11.60;99.90;;;;;;20876965;28;20398;-39
2022/09/26 18:39:55;;;;;;;2.05;0.68;;;11.60;99.90;;;;;;20939811;28;20123;-39
2022/09/26 18:49:56;;;;;;;3.15;0.93;;;11.50;99.90;;;;;;20924277;28;20060;-39
2022/09/26 19:00:01;;;;;;;2.83;0.90;;;11.50;99.90;;;;;;20952118;28;20166;-38
2022/09/26 19:10:02;;;;;;;2.75;1.15;;;11.60;99.90;;;;;;20957345;28;20047;-39
2022/09/26 19:20:04;;;;;;;1.00;0.30;;;11.50;99.90;;;;;;20966763;28;20317;-40
2022/09/26 19:30:15;;;;;;;4.40;1.15;;;11.40;99.90;;;;;;20953736;28;20059;-40
2022/09/26 19:40:18;;;;;;;2.00;0.63;;;11.30;99.90;;;;;;20957040;28;20139;-40
2022/09/26 19:50:24;;;;;;;2.10;1.05;;;11.20;99.90;;;;;;20956947;28;20186;-41
2022/09/26 20:00:25;;;;;;;1.60;0.70;;;11.10;99.90;;;;;;20960057;28;20077;-41
2022/09/26 20:10:27;;;;;;;1.77;0.68;;;11.10;99.90;;;;;;20958542;28;20598;-41
2022/09/26 20:20:30;;;;;;;2.53;1.30;;;11.00;99.90;;;;;;20960575;28;20168;-41
2022/09/26 20:30:50;;;;;;;3.22;1.17;;;11.00;99.90;;;;;;20970126;28;20039;-41
2022/09/26 20:41:00;;;;;;;3.30;1.08;;;10.90;99.90;;;;;;20978411;28;20101;-40
2022/09/26 20:51:03;;;;;;;2.33;0.47;;;11.00;99.90;;;;;;20971201;28;20090;-40
2022/09/26 21:01:04;;;;;;;1.20;0.50;;;10.80;99.90;;;;;;20971875;28;20036;-40
2022/09/26 21:11:12;;;;;;;1.30;0.45;;;10.80;99.90;;;;;;20963289;28;20464;-40
2022/09/26 21:21:24;;;;;;;2.23;1.30;;;10.70;99.90;;;;;;20969182;28;20519;-40
2022/09/26 21:31:29;;;;;;;0.75;0.20;;;10.70;99.90;;;;;;20966619;28;20032;-39
2022/09/26 21:41:30;;;;;;;1.10;0.17;;;10.60;99.90;;;;;;20964659;28;20902;-40
2022/09/26 21:51:31;;;;;;;3.22;0.75;;;10.50;99.90;;;;;;20956958;28;20040;-39
2022/09/26 22:01:32;;;;;;;1.33;0.30;;;10.50;99.90;;;;;;20957914;28;20509;-40
2022/09/26 22:11:35;;;;;;;0.93;0.22;;;10.50;99.90;;;;;;20958363;28;20043;-40
2022/09/26 22:21:36;;;;;;;0.88;0.30;;;10.40;99.90;;;;;;20957551;28;20136;-40
2022/09/26 22:31:37;;;;;;;0.82;0.20;;;10.40;99.90;;;;;;20972805;28;20040;-40
2022/09/26 22:41:38;;;;;;;1.10;0.20;;;10.30;99.90;;;;;;20970662;28;20090;-40
2022/09/26 22:51:39;;;;;;;0.85;0.20;;;10.30;99.90;;;;;;20975573;28;20040;-43
2022/09/26 23:01:40;;;;;;;1.88;0.20;;;10.30;99.90;;;;;;20969090;28;20040;-40
2022/09/26 23:11:42;;;;;;;1.17;0.10;;;10.20;99.90;;;;;;20970782;28;20059;-40
2022/09/26 23:21:42;;;;;;;0.95;0.45;;;10.20;99.90;;;;;;20975606;28;20041;-40
2022/09/26 23:31:43;;;;;;;0.85;0.20;;;10.20;99.90;;;;;;20970155;28;20039;-40
2022/09/26 23:41:45;;;;;;;0.98;0.52;;;10.30;99.90;;;;;;20970100;28;20051;-40
2022/09/26 23:51:46;;;;;;;0.85;0.28;;;10.30;99.90;;;;;;20971076;28;20040;-39
